Back to Top

Language: 

My Weather Underground Personal Weather Station Historical Data with Graphs...

Delerius Weather Station Historical Data
Daily Summary for March 27, 2017 Units:  Metric    English   Both
« Previous Day
Next Day »
Daily Weekly Monthly Yearly Custom
  High: Low: Average:
Temperature: 12.1 °C 6 °C 7.8 °C
Dew Point: 7.2 °C 3.9 °C 5.2 °C
Humidity: 89 % 69 % 84 %
Wind Speed: 11.3 km/h 0 km/h 4.8 km/h
Wind Gust: 22.5 km/h - -
Wind:- - East
Pressure: 1026.6 hPa 1020.5 hPa -
Precipitation: 0 mm    
Historical Graphs
 
 
Tabular Data for March 27, 2017
Time Temperature Dew Point Pressure Wind Wind Speed Wind Gust Humidity Rainfall Rate (Hourly) solar Conditions
00:01 6.7 °C 4.7 °C 1026.6 hPa ESE 9.7 km/h 19.3 km/h 87 % 0 mm 0 W/m2
00:06 6.8 °C 4.8 °C 1026.6 hPa ESE 9.7 km/h 19.3 km/h 87 % 0 mm 0 W/m2
00:11 6.8 °C 4.8 °C 1026.6 hPa ESE 9.7 km/h 17.7 km/h 87 % 0 mm 0 W/m2
00:16 6.8 °C 4.8 °C 1026.6 hPa ESE 8 km/h 16.1 km/h 87 % 0 mm 0 W/m2
00:21 6.8 °C 4.8 °C 1026.6 hPa ESE 9.7 km/h 19.3 km/h 87 % 0 mm 0 W/m2
00:26 6.8 °C 4.8 °C 1026.6 hPa ESE 11.3 km/h 19.3 km/h 87 % 0 mm 0 W/m2
00:31 6.8 °C 4.8 °C 1026.6 hPa ESE 8 km/h 17.7 km/h 87 % 0 mm 0 W/m2
00:36 6.8 °C 4.8 °C 1026.6 hPa ESE 8 km/h 14.5 km/h 87 % 0 mm 0 W/m2
00:41 6.8 °C 4.8 °C 1026.6 hPa SE 8 km/h 14.5 km/h 87 % 0 mm 0 W/m2
00:46 6.8 °C 4.8 °C 1026.6 hPa ESE 9.7 km/h 16.1 km/h 87 % 0 mm 0 W/m2
00:51 6.8 °C 4.8 °C 1026.6 hPa ESE 11.3 km/h 16.1 km/h 87 % 0 mm 0 W/m2
00:56 6.8 °C 4.8 °C 1026.6 hPa ESE 9.7 km/h 17.7 km/h 87 % 0 mm 0 W/m2
01:01 6.8 °C 4.8 °C 1026.6 hPa ESE 9.7 km/h 17.7 km/h 87 % 0 mm 0 W/m2
01:06 6.8 °C 4.8 °C 1026.6 hPa ESE 8 km/h 16.1 km/h 87 % 0 mm 0 W/m2
01:11 6.8 °C 4.8 °C 1026.6 hPa ESE 6.4 km/h 12.9 km/h 87 % 0 mm 0 W/m2
01:16 6.9 °C 4.9 °C 1026.6 hPa ESE 4.8 km/h 12.9 km/h 87 % 0 mm 0 W/m2
01:21 6.9 °C 4.9 °C 1026.6 hPa SE 4.8 km/h 12.9 km/h 87 % 0 mm 0 W/m2
01:26 6.8 °C 4.8 °C 1026.6 hPa ESE 6.4 km/h 9.7 km/h 87 % 0 mm 0 W/m2
01:31 6.8 °C 4.8 °C 1026.6 hPa ESE 4.8 km/h 8 km/h 87 % 0 mm 0 W/m2
01:36 6.8 °C 4.8 °C 1026.3 hPa ESE 3.2 km/h 8 km/h 87 % 0 mm 0 W/m2
01:41 6.8 °C 4.8 °C 1026.3 hPa ESE 3.2 km/h 8 km/h 87 % 0 mm 0 W/m2
01:46 6.8 °C 4.9 °C 1026.3 hPa ESE 3.2 km/h 8 km/h 88 % 0 mm 0 W/m2
01:51 6.8 °C 4.8 °C 1026.3 hPa ESE 4.8 km/h 11.3 km/h 87 % 0 mm 0 W/m2
01:56 6.8 °C 4.8 °C 1026.3 hPa ESE 4.8 km/h 11.3 km/h 87 % 0 mm 0 W/m2
02:02 6.8 °C 4.9 °C 1026.3 hPa ESE 3.2 km/h 11.3 km/h 88 % 0 mm 0 W/m2
02:06 6.8 °C 4.8 °C 1026.3 hPa East 1.6 km/h 6.4 km/h 87 % 0 mm 0 W/m2
02:12 6.7 °C 4.7 °C 1026 hPa East 1.6 km/h 8 km/h 87 % 0 mm 0 W/m2
02:17 6.7 °C 4.8 °C 1026 hPa East 3.2 km/h 8 km/h 88 % 0 mm 0 W/m2
02:22 6.6 °C 4.8 °C 1026 hPa East 3.2 km/h 11.3 km/h 88 % 0 mm 0 W/m2
02:27 6.6 °C 4.8 °C 1026 hPa East 3.2 km/h 11.3 km/h 88 % 0 mm 0 W/m2
02:32 6.5 °C 4.7 °C 1026 hPa East 3.2 km/h 9.7 km/h 88 % 0 mm 0 W/m2
02:37 6.4 °C 4.6 °C 1025.6 hPa ENE 3.2 km/h 9.7 km/h 88 % 0 mm 0 W/m2
02:42 6.4 °C 4.6 °C 1025.6 hPa ENE 3.2 km/h 11.3 km/h 88 % 0 mm 0 W/m2
02:47 6.4 °C 4.6 °C 1025.6 hPa ENE 3.2 km/h 11.3 km/h 88 % 0 mm 0 W/m2
02:52 6.4 °C 4.6 °C 1025.6 hPa ENE 3.2 km/h 9.7 km/h 88 % 0 mm 0 W/m2
02:57 6.4 °C 4.6 °C 1025.6 hPa East 1.6 km/h 8 km/h 88 % 0 mm 0 W/m2
03:02 6.3 °C 4.4 °C 1025.6 hPa East 3.2 km/h 9.7 km/h 88 % 0 mm 0 W/m2
03:07 6.3 °C 4.6 °C 1025.6 hPa ENE 3.2 km/h 9.7 km/h 89 % 0 mm 0 W/m2
03:12 6.3 °C 4.6 °C 1025.6 hPa ENE 3.2 km/h 9.7 km/h 89 % 0 mm 0 W/m2
03:17 6.3 °C 4.4 °C 1025.6 hPa ENE 4.8 km/h 11.3 km/h 88 % 0 mm 0 W/m2
03:22 6.3 °C 4.4 °C 1025.3 hPa ENE 4.8 km/h 11.3 km/h 88 % 0 mm 0 W/m2
03:27 6.3 °C 4.4 °C 1025.6 hPa ENE 3.2 km/h 11.3 km/h 88 % 0 mm 0 W/m2
03:32 6.3 °C 4.4 °C 1025.6 hPa East 1.6 km/h 8 km/h 88 % 0 mm 0 W/m2
03:37 6.3 °C 4.4 °C 1025.3 hPa East 3.2 km/h 12.9 km/h 88 % 0 mm 0 W/m2
03:42 6.3 °C 4.4 °C 1025.3 hPa East 4.8 km/h 14.5 km/h 88 % 0 mm 0 W/m2
03:47 6.3 °C 4.4 °C 1025.3 hPa ENE 3.2 km/h 14.5 km/h 88 % 0 mm 0 W/m2
03:52 6.3 °C 4.4 °C 1025.3 hPa East 1.6 km/h 6.4 km/h 88 % 0 mm 0 W/m2
03:57 6.3 °C 4.4 °C 1025.3 hPa Calm   8 km/h 88 % 0 mm 0 W/m2
04:02 6.3 °C 4.4 °C 1025.3 hPa ENE 3.2 km/h 8 km/h 88 % 0 mm 0 W/m2
04:07 6.2 °C 4.3 °C 1024.9 hPa ENE 4.8 km/h 9.7 km/h 88 % 0 mm 0 W/m2
04:12 6.2 °C 4.3 °C 1025.3 hPa ENE 4.8 km/h 9.7 km/h 88 % 0 mm 0 W/m2
04:17 6.2 °C 4.2 °C 1025.3 hPa East 3.2 km/h 9.7 km/h 87 % 0 mm 0 W/m2
04:22 6.2 °C 4.2 °C 1024.9 hPa ESE 1.6 km/h 8 km/h 87 % 0 mm 0 W/m2
04:27 6.2 °C 4.2 °C 1025.3 hPa East 1.6 km/h 8 km/h 87 % 0 mm 0 W/m2
04:32 6.2 °C 4.2 °C 1025.3 hPa ENE 1.6 km/h 9.7 km/h 87 % 0 mm 0 W/m2
04:37 6.2 °C 4.2 °C 1024.9 hPa ENE 3.2 km/h 11.3 km/h 87 % 0 mm 0 W/m2
04:42 6.2 °C 4.2 °C 1024.9 hPa ENE 1.6 km/h 11.3 km/h 87 % 0 mm 0 W/m2
04:48 6.2 °C 4.2 °C 1024.9 hPa ENE 1.6 km/h 8 km/h 87 % 0 mm 0 W/m2
04:53 6.2 °C 4.2 °C 1024.9 hPa ENE 1.6 km/h 9.7 km/h 87 % 0 mm 0 W/m2
04:58 6.2 °C 4.2 °C 1024.9 hPa ENE 1.6 km/h 9.7 km/h 87 % 0 mm 0 W/m2
05:03 6.1 °C 4.1 °C 1024.9 hPa East 1.6 km/h 8 km/h 87 % 0 mm 0 W/m2
05:08 6.1 °C 4.1 °C 1024.9 hPa East 1.6 km/h 8 km/h 87 % 0 mm 0 W/m2
05:13 6.1 °C 4.1 °C 1024.9 hPa East 1.6 km/h 8 km/h 87 % 0 mm 0 W/m2
05:18 6.1 °C 4.1 °C 1024.6 hPa East 1.6 km/h 9.7 km/h 87 % 0 mm 0 W/m2
05:23 6.1 °C 4.1 °C 1024.9 hPa East 3.2 km/h 9.7 km/h 87 % 0 mm 0 W/m2
05:28 6.1 °C 4.1 °C 1024.9 hPa East 1.6 km/h 8 km/h 87 % 0 mm 0 W/m2
05:33 6.1 °C 4.1 °C 1024.6 hPa ENE 1.6 km/h 8 km/h 87 % 0 mm 0 W/m2
05:38 6.1 °C 4.1 °C 1024.6 hPa ENE 4.8 km/h 11.3 km/h 87 % 0 mm 0 W/m2
05:43 6.1 °C 4.1 °C 1024.6 hPa ENE 6.4 km/h 11.3 km/h 87 % 0 mm 0 W/m2
05:48 6 °C 4 °C 1024.9 hPa ENE 4.8 km/h 11.3 km/h 87 % 0 mm 0 W/m2
05:53 6 °C 4 °C 1024.9 hPa ENE 3.2 km/h 8 km/h 87 % 0 mm 0 W/m2
05:58 6 °C 4 °C 1024.9 hPa ENE 1.6 km/h 8 km/h 87 % 0 mm 0 W/m2
06:03 6.1 °C 4.1 °C 1024.9 hPa ENE 1.6 km/h 9.7 km/h 87 % 0 mm 0 W/m2
06:08 6.1 °C 4.1 °C 1024.9 hPa ENE 3.2 km/h 9.7 km/h 87 % 0 mm 0 W/m2
06:13 6.1 °C 4.1 °C 1024.9 hPa ENE 1.6 km/h 8 km/h 87 % 0 mm 0 W/m2
06:18 6.1 °C 4.1 °C 1024.9 hPa Calm   1.6 km/h 87 % 0 mm 0 W/m2
06:23 6.1 °C 4.1 °C 1024.9 hPa Calm   3.2 km/h 87 % 0 mm 0 W/m2
06:28 6.1 °C 4.1 °C 1025.3 hPa Calm   8 km/h 87 % 0 mm 0 W/m2
06:33 6.1 °C 4.1 °C 1024.9 hPa Calm   8 km/h 87 % 0 mm 0 W/m2
06:38 6.1 °C 4.1 °C 1024.9 hPa Calm   4.8 km/h 87 % 0 mm 0 W/m2
06:43 6.1 °C 4.1 °C 1024.9 hPa Calm   6.4 km/h 87 % 0 mm 0 W/m2
06:48 6.1 °C 4.1 °C 1024.9 hPa Calm   6.4 km/h 87 % 0 mm 0 W/m2
06:53 6.1 °C 4.3 °C 1024.9 hPa ENE 1.6 km/h 9.7 km/h 88 % 0 mm 0 W/m2
06:58 6.1 °C 4.1 °C 1024.9 hPa ENE 3.2 km/h 9.7 km/h 87 % 0 mm 0 W/m2
07:03 6.1 °C 4.1 °C 1024.9 hPa ENE 3.2 km/h 9.7 km/h 87 % 0 mm 5 W/m2
07:08 6.1 °C 4.1 °C 1024.9 hPa ENE 4.8 km/h 9.7 km/h 87 % 0 mm 5 W/m2
07:13 6.1 °C 4.1 °C 1024.9 hPa NE 4.8 km/h 9.7 km/h 87 % 0 mm 9 W/m2
07:18 6.1 °C 4.3 °C 1024.9 hPa NE 3.2 km/h 9.7 km/h 88 % 0 mm 9 W/m2
07:20 6.1 °C 4.3 °C 1024.9 hPa NE 3.2 km/h 8 km/h 88 % 0 mm 11 W/m2
07:25 6.1 °C 4.3 °C 1024.9 hPa NE 1.6 km/h 9.7 km/h 88 % 0 mm 12 W/m2
07:30 6.1 °C 4.3 °C 1024.9 hPa NE 1.6 km/h 9.7 km/h 88 % 0 mm 14 W/m2
07:35 6.1 °C 4.3 °C 1024.6 hPa NE 1.6 km/h 9.7 km/h 88 % 0 mm 16 W/m2
07:40 6.1 °C 4.1 °C 1024.9 hPa ENE 1.6 km/h 9.7 km/h 87 % 0 mm 23 W/m2
07:45 6.1 °C 4.1 °C 1024.9 hPa ENE 1.6 km/h 8 km/h 87 % 0 mm 23 W/m2
07:50 6.1 °C 4.1 °C 1024.9 hPa ENE 1.6 km/h 6.4 km/h 87 % 0 mm 25 W/m2
07:55 6.1 °C 4.1 °C 1024.9 hPa ENE 1.6 km/h 6.4 km/h 87 % 0 mm 26 W/m2
08:00 6.1 °C 4.1 °C 1024.9 hPa ENE 1.6 km/h 6.4 km/h 87 % 0 mm 32 W/m2
08:05 6.1 °C 4.1 °C 1024.9 hPa NE 3.2 km/h 11.3 km/h 87 % 0 mm 44 W/m2
08:10 6.1 °C 4.1 °C 1024.9 hPa NE 4.8 km/h 11.3 km/h 87 % 0 mm 46 W/m2
08:15 6.1 °C 4.1 °C 1024.9 hPa ENE 3.2 km/h 11.3 km/h 87 % 0 mm 49 W/m2
08:20 6.1 °C 3.9 °C 1024.9 hPa ENE 3.2 km/h 11.3 km/h 86 % 0 mm 46 W/m2
08:25 6.2 °C 4.1 °C 1024.9 hPa ENE 3.2 km/h 9.7 km/h 86 % 0 mm 42 W/m2
08:30 6.2 °C 4.2 °C 1024.9 hPa ENE 3.2 km/h 9.7 km/h 87 % 0 mm 42 W/m2
08:35 6.2 °C 4.1 °C 1024.9 hPa ENE 3.2 km/h 9.7 km/h 86 % 0 mm 44 W/m2
08:40 6.2 °C 4.1 °C 1024.9 hPa ENE 3.2 km/h 9.7 km/h 86 % 0 mm 53 W/m2
08:45 6.2 °C 4.1 °C 1024.9 hPa ENE 3.2 km/h 9.7 km/h 86 % 0 mm 62 W/m2
08:50 6.2 °C 4.1 °C 1024.9 hPa ENE 3.2 km/h 9.7 km/h 86 % 0 mm 53 W/m2
08:55 6.3 °C 4.1 °C 1024.9 hPa ENE 3.2 km/h 8 km/h 86 % 0 mm 63 W/m2
09:00 6.3 °C 4.1 °C 1024.9 hPa ENE 1.6 km/h 9.7 km/h 86 % 0 mm 60 W/m2
09:05 6.4 °C 4.2 °C 1024.9 hPa East 3.2 km/h 9.7 km/h 86 % 0 mm 56 W/m2
09:11 6.4 °C 4.2 °C 1024.9 hPa ENE 3.2 km/h 11.3 km/h 86 % 0 mm 60 W/m2
09:16 6.4 °C 4.2 °C 1024.9 hPa ENE 3.2 km/h 14.5 km/h 86 % 0 mm 67 W/m2
09:21 6.4 °C 4.1 °C 1024.9 hPa East 4.8 km/h 14.5 km/h 85 % 0 mm 67 W/m2
09:26 6.5 °C 4.2 °C 1024.9 hPa East 3.2 km/h 12.9 km/h 85 % 0 mm 70 W/m2
09:31 6.6 °C 4.3 °C 1024.9 hPa ESE 3.2 km/h 9.7 km/h 85 % 0 mm 77 W/m2
09:36 6.6 °C 4.3 °C 1024.9 hPa ESE 3.2 km/h 9.7 km/h 85 % 0 mm 86 W/m2
09:41 6.6 °C 4.3 °C 1024.9 hPa East 3.2 km/h 9.7 km/h 85 % 0 mm 88 W/m2
09:46 6.6 °C 4.3 °C 1024.9 hPa East 3.2 km/h 9.7 km/h 85 % 0 mm 102 W/m2
09:51 6.7 °C 4.3 °C 1024.9 hPa East 1.6 km/h 8 km/h 85 % 0 mm 102 W/m2
09:56 6.7 °C 4.3 °C 1024.9 hPa ESE 1.6 km/h 9.7 km/h 85 % 0 mm 120 W/m2
10:01 6.8 °C 4.3 °C 1024.9 hPa East 3.2 km/h 14.5 km/h 84 % 0 mm 155 W/m2
10:06 6.9 °C 4.2 °C 1024.9 hPa East 4.8 km/h 14.5 km/h 83 % 0 mm 163 W/m2
10:11 6.9 °C 4.2 °C 1024.9 hPa East 4.8 km/h 12.9 km/h 83 % 0 mm 127 W/m2
10:16 6.9 °C 4.4 °C 1024.9 hPa ENE 6.4 km/h 14.5 km/h 84 % 0 mm 120 W/m2
10:21 6.9 °C 4.4 °C 1024.9 hPa NE 6.4 km/h 14.5 km/h 84 % 0 mm 128 W/m2
10:26 6.9 °C 4.4 °C 1024.9 hPa ENE 4.8 km/h 12.9 km/h 84 % 0 mm 141 W/m2
10:31 7 °C 4.5 °C 1024.6 hPa East 4.8 km/h 12.9 km/h 84 % 0 mm 146 W/m2
10:36 7.1 °C 4.6 °C 1024.9 hPa ESE 4.8 km/h 11.3 km/h 84 % 0 mm 137 W/m2
10:41 7.1 °C 4.4 °C 1024.9 hPa ESE 4.8 km/h 12.9 km/h 83 % 0 mm 137 W/m2
10:46 7.1 °C 4.4 °C 1024.9 hPa East 4.8 km/h 12.9 km/h 83 % 0 mm 135 W/m2
10:51 7.1 °C 4.4 °C 1024.9 hPa ENE 4.8 km/h 11.3 km/h 83 % 0 mm 142 W/m2
10:56 7.1 °C 4.4 °C 1024.6 hPa ENE 4.8 km/h 11.3 km/h 83 % 0 mm 149 W/m2
11:01 7.1 °C 4.4 °C 1024.6 hPa ENE 6.4 km/h 12.9 km/h 83 % 0 mm 148 W/m2
11:06 7.2 °C 4.7 °C 1024.6 hPa ENE 6.4 km/h 12.9 km/h 84 % 0 mm 146 W/m2
11:11 7.2 °C 4.7 °C 1024.6 hPa ENE 4.8 km/h 12.9 km/h 84 % 0 mm 146 W/m2
11:16 7.3 °C 4.6 °C 1024.6 hPa East 3.2 km/h 12.9 km/h 83 % 0 mm 156 W/m2
11:21 7.4 °C 4.7 °C 1024.6 hPa ENE 3.2 km/h 12.9 km/h 83 % 0 mm 153 W/m2
11:26 7.4 °C 4.7 °C 1024.6 hPa East 4.8 km/h 12.9 km/h 83 % 0 mm 163 W/m2
11:31 7.4 °C 4.7 °C 1024.6 hPa East 4.8 km/h 12.9 km/h 83 % 0 mm 176 W/m2
11:36 7.5 °C 4.8 °C 1024.6 hPa East 4.8 km/h 11.3 km/h 83 % 0 mm 176 W/m2
11:41 7.6 °C 4.7 °C 1024.6 hPa ENE 4.8 km/h 11.3 km/h 82 % 0 mm 172 W/m2
11:46 7.6 °C 4.7 °C 1024.6 hPa East 4.8 km/h 9.7 km/h 82 % 0 mm 165 W/m2
11:51 7.7 °C 4.8 °C 1024.6 hPa SE 1.6 km/h 9.7 km/h 82 % 0 mm 179 W/m2
11:56 7.8 °C 4.9 °C 1024.6 hPa ESE 1.6 km/h 11.3 km/h 82 % 0 mm 200 W/m2
12:01 7.8 °C 4.7 °C 1024.6 hPa ESE 4.8 km/h 12.9 km/h 81 % 0 mm 200 W/m2
12:06 7.8 °C 4.7 °C 1024.6 hPa ESE 4.8 km/h 12.9 km/h 81 % 0 mm 206 W/m2
12:11 7.9 °C 4.8 °C 1024.3 hPa ESE 4.8 km/h 11.3 km/h 81 % 0 mm 202 W/m2
12:16 7.9 °C 4.8 °C 1024.3 hPa ESE 4.8 km/h 12.9 km/h 81 % 0 mm 216 W/m2
12:21 8 °C 4.9 °C 1024.3 hPa ESE 4.8 km/h 14.5 km/h 81 % 0 mm 232 W/m2
12:26 8.2 °C 5.1 °C 1024.3 hPa SE 4.8 km/h 14.5 km/h 81 % 0 mm 206 W/m2
12:31 8.3 °C 5.2 °C 1024.3 hPa SE 4.8 km/h 11.3 km/h 81 % 0 mm 197 W/m2
12:37 8.3 °C 5.1 °C 1023.9 hPa SE 3.2 km/h 11.3 km/h 80 % 0 mm 202 W/m2
12:42 8.4 °C 5.3 °C 1023.9 hPa ESE 4.8 km/h 11.3 km/h 81 % 0 mm 199 W/m2
12:47 8.5 °C 5.4 °C 1023.9 hPa East 6.4 km/h 12.9 km/h 81 % 0 mm 204 W/m2
12:52 8.5 °C 5.2 °C 1023.9 hPa ESE 4.8 km/h 12.9 km/h 80 % 0 mm 206 W/m2
12:57 8.5 °C 5.2 °C 1023.9 hPa ESE 4.8 km/h 12.9 km/h 80 % 0 mm 218 W/m2
13:02 8.6 °C 5.3 °C 1023.9 hPa SE 6.4 km/h 17.7 km/h 80 % 0 mm 257 W/m2
13:07 8.4 °C 5.2 °C 1023.9 hPa SSE 8 km/h 17.7 km/h 80 % 0 mm 251 W/m2
13:12 8.3 °C 5.1 °C 1023.9 hPa SSE 9.7 km/h 16.1 km/h 80 % 0 mm 262 W/m2
13:17 8.4 °C 5.3 °C 1023.9 hPa SSE 9.7 km/h 16.1 km/h 81 % 0 mm 288 W/m2
13:22 8.4 °C 5.3 °C 1023.9 hPa South 9.7 km/h 16.1 km/h 81 % 0 mm 294 W/m2
13:27 8.4 °C 5.2 °C 1023.9 hPa South 8 km/h 16.1 km/h 80 % 0 mm 334 W/m2
13:32 8.6 °C 5.3 °C 1023.9 hPa SSE 9.7 km/h 17.7 km/h 80 % 0 mm 306 W/m2
13:37 8.6 °C 5.3 °C 1023.9 hPa SSE 8 km/h 17.7 km/h 80 % 0 mm 288 W/m2
13:42 8.7 °C 5.3 °C 1023.6 hPa SSE 8 km/h 22.5 km/h 79 % 0 mm 274 W/m2
13:47 8.7 °C 5.3 °C 1023.6 hPa SSE 8 km/h 22.5 km/h 79 % 0 mm 244 W/m2
13:52 8.8 °C 5.3 °C 1023.6 hPa SE 6.4 km/h 12.9 km/h 79 % 0 mm 279 W/m2
13:57 9 °C 5.6 °C 1023.6 hPa SE 4.8 km/h 12.9 km/h 79 % 0 mm 292 W/m2
14:02 9.1 °C 5.7 °C 1023.2 hPa SE 4.8 km/h 11.3 km/h 79 % 0 mm 327 W/m2
14:07 9.2 °C 5.7 °C 1023.2 hPa SE 6.4 km/h 14.5 km/h 79 % 0 mm 341 W/m2
14:12 9.3 °C 5.7 °C 1023.2 hPa SE 6.4 km/h 14.5 km/h 78 % 0 mm 374 W/m2
14:17 9.2 °C 5.6 °C 1023.2 hPa SE 8 km/h 14.5 km/h 78 % 0 mm 308 W/m2
14:22 9.1 °C 5.4 °C 1023.2 hPa SE 8 km/h 12.9 km/h 78 % 0 mm 302 W/m2
14:27 9.1 °C 5.8 °C 1023.2 hPa SSE 6.4 km/h 12.9 km/h 80 % 0 mm 313 W/m2
14:32 9.1 °C 5.7 °C 1023.2 hPa SE 8 km/h 17.7 km/h 79 % 0 mm 325 W/m2
14:37 9.1 °C 5.7 °C 1022.9 hPa SE 8 km/h 17.7 km/h 79 % 0 mm 339 W/m2
14:42 9.2 °C 5.7 °C 1022.9 hPa SSE 3.2 km/h 9.7 km/h 79 % 0 mm 348 W/m2
14:47 9.3 °C 5.8 °C 1022.9 hPa SE 1.6 km/h 8 km/h 79 % 0 mm 512 W/m2
14:52 9.5 °C 6.1 °C 1022.6 hPa ENE 3.2 km/h 9.7 km/h 79 % 0 mm 352 W/m2
14:57 9.6 °C 6.1 °C 1022.6 hPa ENE 4.8 km/h 11.3 km/h 79 % 0 mm 290 W/m2
15:02 9.7 °C 6.1 °C 1022.6 hPa ENE 6.4 km/h 11.3 km/h 78 % 0 mm 309 W/m2
15:07 9.8 °C 6.2 °C 1022.6 hPa East 4.8 km/h 9.7 km/h 78 % 0 mm 304 W/m2
15:12 9.8 °C 6.2 °C 1022.6 hPa NE 3.2 km/h 9.7 km/h 78 % 0 mm 404 W/m2
15:17 10.1 °C 6.4 °C 1022.6 hPa ENE 4.8 km/h 9.7 km/h 78 % 0 mm 322 W/m2
15:22 10.2 °C 6.2 °C 1022.2 hPa East 4.8 km/h 9.7 km/h 76 % 0 mm 243 W/m2
15:27 10.3 °C 6.4 °C 1022.2 hPa East 6.4 km/h 12.9 km/h 77 % 0 mm 603 W/m2
15:32 10.6 °C 6.6 °C 1022.2 hPa East 4.8 km/h 12.9 km/h 76 % 0 mm 547 W/m2
15:37 10.8 °C 6.7 °C 1022.2 hPa ENE 3.2 km/h 12.9 km/h 76 % 0 mm 592 W/m2
15:42 10.9 °C 6.7 °C 1021.9 hPa ENE 4.8 km/h 12.9 km/h 75 % 0 mm 591 W/m2
15:47 11.2 °C 6.7 °C 1021.9 hPa East 4.8 km/h 11.3 km/h 74 % 0 mm 540 W/m2
15:52 11.4 °C 6.7 °C 1021.9 hPa East 4.8 km/h 11.3 km/h 73 % 0 mm 533 W/m2
15:57 11.4 °C 6.7 °C 1021.9 hPa ENE 6.4 km/h 12.9 km/h 73 % 0 mm 267 W/m2
16:02 11.2 °C 6.6 °C 1021.9 hPa ENE 6.4 km/h 12.9 km/h 73 % 0 mm 508 W/m2
16:07 11.2 °C 6.7 °C 1021.9 hPa ENE 4.8 km/h 12.9 km/h 74 % 0 mm 459 W/m2
16:12 11.3 °C 6.8 °C 1021.9 hPa ENE 3.2 km/h 12.9 km/h 74 % 0 mm 483 W/m2
16:17 11.5 °C 6.8 °C 1021.6 hPa ENE 3.2 km/h 9.7 km/h 73 % 0 mm 434 W/m2
16:22 11.7 °C 6.8 °C 1021.6 hPa East 4.8 km/h 12.9 km/h 72 % 0 mm 388 W/m2
16:27 11.8 °C 6.7 °C 1021.6 hPa ESE 6.4 km/h 14.5 km/h 71 % 0 mm 429 W/m2
16:32 11.8 °C 6.9 °C 1021.6 hPa East 4.8 km/h 14.5 km/h 72 % 0 mm 411 W/m2
16:38 11.9 °C 6.8 °C 1021.6 hPa East 4.8 km/h 16.1 km/h 71 % 0 mm 411 W/m2
16:43 12 °C 6.9 °C 1021.6 hPa East 4.8 km/h 16.1 km/h 71 % 0 mm 359 W/m2
16:48 12.1 °C 7 °C 1021.6 hPa East 4.8 km/h 14.5 km/h 71 % 0 mm 207 W/m2
16:53 12.1 °C 7.2 °C 1021.6 hPa ENE 4.8 km/h 17.7 km/h 72 % 0 mm 385 W/m2
16:58 12.1 °C 7 °C 1021.6 hPa ENE 4.8 km/h 17.7 km/h 71 % 0 mm 188 W/m2
17:03 12.1 °C 7 °C 1021.6 hPa ENE 6.4 km/h 16.1 km/h 71 % 0 mm 376 W/m2
17:08 12.1 °C 7 °C 1021.2 hPa ENE 8 km/h 16.1 km/h 71 % 0 mm 392 W/m2
17:13 11.9 °C 6.8 °C 1021.2 hPa ENE 8 km/h 16.1 km/h 71 % 0 mm 279 W/m2
17:18 11.9 °C 6.8 °C 1021.2 hPa East 6.4 km/h 14.5 km/h 71 % 0 mm 334 W/m2
17:23 12.1 °C 7 °C 1021.2 hPa ENE 4.8 km/h 12.9 km/h 71 % 0 mm 295 W/m2
17:28 12 °C 6.9 °C 1021.2 hPa East 4.8 km/h 11.3 km/h 71 % 0 mm 232 W/m2
17:33 12.1 °C 7 °C 1021.2 hPa East 4.8 km/h 12.9 km/h 71 % 0 mm 308 W/m2
17:38 12.1 °C 6.8 °C 1021.2 hPa ESE 6.4 km/h 17.7 km/h 70 % 0 mm 234 W/m2
17:43 12.1 °C 6.8 °C 1021.2 hPa SE 8 km/h 17.7 km/h 70 % 0 mm 214 W/m2
17:48 12.1 °C 6.6 °C 1021.2 hPa SE 8 km/h 14.5 km/h 69 % 0 mm 211 W/m2
17:53 12.1 °C 6.8 °C 1021.2 hPa SE 8 km/h 14.5 km/h 70 % 0 mm 199 W/m2
17:58 12 °C 6.7 °C 1020.9 hPa SE 6.4 km/h 12.9 km/h 70 % 0 mm 202 W/m2
18:03 12 °C 6.7 °C 1020.9 hPa SE 6.4 km/h 12.9 km/h 70 % 0 mm 185 W/m2
18:08 11.9 °C 7 °C 1020.9 hPa East 6.4 km/h 16.1 km/h 72 % 0 mm 183 W/m2
18:13 11.7 °C 7 °C 1020.9 hPa ENE 6.4 km/h 16.1 km/h 73 % 0 mm 165 W/m2
18:18 11.4 °C 6.9 °C 1020.9 hPa ENE 8 km/h 14.5 km/h 74 % 0 mm 141 W/m2
18:23 11.2 °C 6.9 °C 1020.9 hPa ENE 8 km/h 14.5 km/h 75 % 0 mm 118 W/m2
18:28 11 °C 6.9 °C 1020.9 hPa ENE 6.4 km/h 14.5 km/h 76 % 0 mm 90 W/m2
18:33 10.8 °C 6.7 °C 1020.9 hPa ENE 6.4 km/h 12.9 km/h 76 % 0 mm 63 W/m2
18:38 10.5 °C 6.6 °C 1020.5 hPa ENE 8 km/h 14.5 km/h 77 % 0 mm 60 W/m2
18:43 10.2 °C 6.6 °C 1020.5 hPa ENE 9.7 km/h 14.5 km/h 78 % 0 mm 44 W/m2
18:48 10 °C 6.5 °C 1020.5 hPa ENE 9.7 km/h 17.7 km/h 79 % 0 mm 47 W/m2
18:53 9.8 °C 6.5 °C 1020.5 hPa ENE 8 km/h 17.7 km/h 80 % 0 mm 32 W/m2
18:58 9.6 °C 6.3 °C 1020.9 hPa ENE 6.4 km/h 16.1 km/h 80 % 0 mm 23 W/m2
19:03 9.4 °C 6.3 °C 1020.9 hPa ENE 4.8 km/h 14.5 km/h 81 % 0 mm 18 W/m2
19:08 9.2 °C 6.3 °C 1020.9 hPa ENE 4.8 km/h 14.5 km/h 82 % 0 mm 12 W/m2
19:13 9.1 °C 6.2 °C 1020.9 hPa East 3.2 km/h 11.3 km/h 82 % 0 mm 11 W/m2
19:18 8.9 °C 6.2 °C 1021.2 hPa ENE 3.2 km/h 11.3 km/h 83 % 0 mm 7 W/m2
19:23 8.8 °C 6.2 °C 1020.9 hPa ENE 3.2 km/h 11.3 km/h 84 % 0 mm 5 W/m2
19:28 8.7 °C 6.3 °C 1020.9 hPa ENE 6.4 km/h 12.9 km/h 85 % 0 mm 0 W/m2
19:33 8.6 °C 6.2 °C 1020.9 hPa ENE 4.8 km/h 12.9 km/h 85 % 0 mm 0 W/m2
19:38 8.4 °C 6.2 °C 1020.9 hPa ENE 6.4 km/h 11.3 km/h 86 % 0 mm 0 W/m2
19:43 8.3 °C 6.1 °C 1020.9 hPa ENE 6.4 km/h 12.9 km/h 86 % 0 mm 0 W/m2
19:48 8.3 °C 6.1 °C 1021.2 hPa ENE 4.8 km/h 12.9 km/h 86 % 0 mm 0 W/m2
19:53 8.1 °C 5.9 °C 1021.2 hPa ENE 6.4 km/h 17.7 km/h 86 % 0 mm 0 W/m2
19:58 8 °C 5.9 °C 1021.2 hPa East 6.4 km/h 17.7 km/h 87 % 0 mm 0 W/m2
20:03 7.9 °C 5.9 °C 1021.2 hPa ENE 6.4 km/h 14.5 km/h 87 % 0 mm 0 W/m2
20:08 7.8 °C 5.8 °C 1021.2 hPa ENE 6.4 km/h 14.5 km/h 87 % 0 mm 0 W/m2
20:13 7.8 °C 5.8 °C 1021.6 hPa ENE 8 km/h 14.5 km/h 87 % 0 mm 0 W/m2
20:18 7.7 °C 5.7 °C 1021.6 hPa ENE 6.4 km/h 14.5 km/h 87 % 0 mm 0 W/m2
20:23 7.6 °C 5.6 °C 1021.6 hPa ENE 6.4 km/h 14.5 km/h 87 % 0 mm 0 W/m2
20:28 7.6 °C 5.7 °C 1021.6 hPa ENE 6.4 km/h 14.5 km/h 88 % 0 mm 0 W/m2
20:30 7.6 °C 5.7 °C 1021.6 hPa ENE 6.4 km/h 14.5 km/h 88 % 0 mm 0 W/m2
20:33 7.6 °C 5.7 °C 1021.6 hPa ENE 6.4 km/h 14.5 km/h 88 % 0 mm 0 W/m2
20:34 7.5 °C 5.7 °C 1021.6 hPa ENE 6.4 km/h 14.5 km/h 88 % 0 mm 0 W/m2
20:36 7.5 °C 5.7 °C 1021.6 hPa ENE 6.4 km/h 16.1 km/h 88 % 0 mm 0 W/m2
20:37 7.5 °C 5.7 °C 1021.6 hPa ENE 6.4 km/h 16.1 km/h 88 % 0 mm 0 W/m2
20:38 7.5 °C 5.7 °C 1021.2 hPa ENE 6.4 km/h 16.1 km/h 88 % 0 mm 0 W/m2
20:43 7.4 °C 5.6 °C 1021.6 hPa East 6.4 km/h 16.1 km/h 88 % 0 mm 0 W/m2
20:48 7.4 °C 5.6 °C 1021.6 hPa East 6.4 km/h 12.9 km/h 88 % 0 mm 0 W/m2
20:52 7.4 °C 5.6 °C 1021.6 hPa East 4.8 km/h 12.9 km/h 88 % 0 mm 0 W/m2
20:53 7.4 °C 5.6 °C 1021.6 hPa East 6.4 km/h 11.3 km/h 88 % 0 mm 0 W/m2
20:54 7.4 °C 5.6 °C 1021.6 hPa East 6.4 km/h 11.3 km/h 88 % 0 mm 0 W/m2
20:55 7.4 °C 5.6 °C 1021.6 hPa East 4.8 km/h 11.3 km/h 88 % 0 mm 0 W/m2
20:56 7.4 °C 5.6 °C 1021.6 hPa East 4.8 km/h 11.3 km/h 88 % 0 mm 0 W/m2
21:01 7.4 °C 5.6 °C 1021.6 hPa East 4.8 km/h 12.9 km/h 88 % 0 mm 0 W/m2
21:06 7.5 °C 5.7 °C 1021.6 hPa East 3.2 km/h 12.9 km/h 88 % 0 mm 0 W/m2
21:11 7.5 °C 5.7 °C 1021.6 hPa East 3.2 km/h 9.7 km/h 88 % 0 mm 0 W/m2
21:16 7.5 °C 5.5 °C 1021.9 hPa East 3.2 km/h 12.9 km/h 87 % 0 mm 0 W/m2
21:21 7.5 °C 5.7 °C 1021.9 hPa ESE 3.2 km/h 12.9 km/h 88 % 0 mm 0 W/m2
21:26 7.5 °C 5.7 °C 1021.9 hPa East 3.2 km/h 9.7 km/h 88 % 0 mm 0 W/m2
21:31 7.6 °C 5.7 °C 1021.9 hPa East 1.6 km/h 9.7 km/h 88 % 0 mm 0 W/m2
21:36 7.6 °C 5.7 °C 1021.9 hPa East 3.2 km/h 11.3 km/h 88 % 0 mm 0 W/m2
21:41 7.6 °C 5.7 °C 1021.9 hPa East 4.8 km/h 11.3 km/h 88 % 0 mm 0 W/m2
21:46 7.6 °C 5.7 °C 1021.9 hPa ESE 3.2 km/h 11.3 km/h 88 % 0 mm 0 W/m2
21:49 7.6 °C 5.7 °C 1021.6 hPa ESE 3.2 km/h 9.7 km/h 88 % 0 mm 0 W/m2
21:54 7.6 °C 5.7 °C 1021.9 hPa ESE 6.4 km/h 12.9 km/h 88 % 0 mm 0 W/m2
21:59 7.6 °C 5.7 °C 1021.6 hPa ESE 6.4 km/h 12.9 km/h 88 % 0 mm 0 W/m2
22:04 7.6 °C 5.7 °C 1021.9 hPa ESE 6.4 km/h 12.9 km/h 88 % 0 mm 0 W/m2
22:10 7.7 °C 5.8 °C 1021.9 hPa ESE 6.4 km/h 14.5 km/h 88 % 0 mm 0 W/m2
22:15 7.7 °C 5.8 °C 1021.9 hPa ESE 6.4 km/h 14.5 km/h 88 % 0 mm 0 W/m2
22:20 7.6 °C 5.7 °C 1021.9 hPa ESE 8 km/h 17.7 km/h 88 % 0 mm 0 W/m2
22:25 7.6 °C 5.7 °C 1021.6 hPa ESE 9.7 km/h 17.7 km/h 88 % 0 mm 0 W/m2
22:30 7.6 °C 5.7 °C 1021.6 hPa ESE 8 km/h 16.1 km/h 88 % 0 mm 0 W/m2
22:35 7.6 °C 5.7 °C 1021.6 hPa SE 8 km/h 16.1 km/h 88 % 0 mm 0 W/m2
22:40 7.5 °C 5.7 °C 1021.6 hPa ESE 6.4 km/h 14.5 km/h 88 % 0 mm 0 W/m2
22:45 7.4 °C 5.6 °C 1021.6 hPa ESE 8 km/h 16.1 km/h 88 % 0 mm 0 W/m2
22:50 7.4 °C 5.6 °C 1021.6 hPa ESE 9.7 km/h 16.1 km/h 88 % 0 mm 0 W/m2
22:55 7.4 °C 5.6 °C 1021.6 hPa ESE 6.4 km/h 12.9 km/h 88 % 0 mm 0 W/m2
23:00 7.4 °C 5.6 °C 1021.2 hPa ESE 6.4 km/h 12.9 km/h 88 % 0 mm 0 W/m2
23:05 7.3 °C 5.3 °C 1021.2 hPa ESE 9.7 km/h 16.1 km/h 87 % 0 mm 0 W/m2
23:10 7.3 °C 5.3 °C 1021.2 hPa ESE 9.7 km/h 16.1 km/h 87 % 0 mm 0 W/m2
23:15 7.3 °C 5.3 °C 1021.2 hPa ESE 9.7 km/h 14.5 km/h 87 % 0 mm 0 W/m2
23:20 7.2 °C 5.2 °C 1021.2 hPa ESE 8 km/h 16.1 km/h 87 % 0 mm 0 W/m2
23:25 7.2 °C 5.3 °C 1021.2 hPa ESE 8 km/h 16.1 km/h 88 % 0 mm 0 W/m2
23:30 7.2 °C 5.3 °C 1021.2 hPa ESE 8 km/h 12.9 km/h 88 % 0 mm 0 W/m2
23:35 7.2 °C 5.3 °C 1021.2 hPa ESE 4.8 km/h 11.3 km/h 88 % 0 mm 0 W/m2
23:40 7.2 °C 5.3 °C 1021.2 hPa East 4.8 km/h 11.3 km/h 88 % 0 mm 0 W/m2
23:45 7.1 °C 5.2 °C 1021.2 hPa ESE 4.8 km/h 11.3 km/h 88 % 0 mm 0 W/m2
23:50 7.1 °C 5.2 °C 1021.2 hPa East 3.2 km/h 11.3 km/h 88 % 0 mm 0 W/m2
23:55 7 °C 5.2 °C 1021.2 hPa East 4.8 km/h 11.3 km/h 88 % 0 mm 0 W/m2
Delerius-Weather
Compliments of Weather Underground - 2.25 mb

Data updates at regular intervals.